Time;durP1;ratioP1;P1;durP2;ratioP2;P2;SDS_P1;SDS_P2;PMS_P1;PMS_P2;Temp;Humidity;BMP_temperature;BMP_pressure;BME280_temperature;BME280_humidity;BME280_pressure;Samples;Min_cycle;Max_cycle;Signal;HPM_P1;HPM_P2
2023/08/17 00:01:31;;;;;;;3.28;2.40;;;21.70;99.90;;;;;;5033077;28;20237;-61
2023/08/17 00:03:57;;;;;;;4.43;2.50;;;21.70;99.90;;;;;;5033602;28;20214;-61
2023/08/17 00:06:25;;;;;;;3.22;2.08;;;21.60;99.90;;;;;;5032893;28;20217;-60
2023/08/17 00:08:52;;;;;;;4.95;2.58;;;21.60;99.90;;;;;;5033093;28;20218;-61
2023/08/17 00:11:19;;;;;;;5.07;2.20;;;21.60;99.90;;;;;;5033017;28;20424;-61
2023/08/17 00:13:45;;;;;;;6.78;2.65;;;21.60;99.90;;;;;;5032967;28;20292;-61
2023/08/17 00:16:13;;;;;;;4.13;2.40;;;21.50;99.90;;;;;;5032424;28;20213;-61
2023/08/17 00:18:40;;;;;;;4.28;2.70;;;21.50;99.90;;;;;;5033156;28;20297;-61
2023/08/17 00:21:07;;;;;;;3.25;2.40;;;21.50;99.90;;;;;;5032831;28;20202;-62
2023/08/17 00:23:34;;;;;;;5.18;2.60;;;21.40;99.90;;;;;;5032785;28;20226;-60
2023/08/17 00:26:01;;;;;;;6.72;2.80;;;21.40;99.90;;;;;;5032492;28;20289;-60
2023/08/17 00:28:27;;;;;;;6.95;2.60;;;21.30;99.90;;;;;;5032717;28;20257;-61
2023/08/17 00:30:54;;;;;;;5.05;2.55;;;21.30;99.90;;;;;;5032865;28;20214;-60
2023/08/17 00:33:22;;;;;;;4.25;2.80;;;21.30;99.90;;;;;;5032391;28;20266;-61
2023/08/17 00:35:49;;;;;;;4.30;2.70;;;21.20;99.90;;;;;;5032202;28;20634;-60
2023/08/17 00:38:15;;;;;;;3.95;2.83;;;21.20;99.90;;;;;;5032465;28;20638;-60
2023/08/17 00:40:43;;;;;;;5.15;2.53;;;21.10;99.90;;;;;;5032574;28;20210;-60
2023/08/17 00:43:10;;;;;;;2.47;2.20;;;20.90;99.90;;;;;;5032236;28;20269;-60
2023/08/17 00:45:37;;;;;;;3.60;2.35;;;20.80;99.90;;;;;;5032195;28;20217;-61
2023/08/17 00:48:07;;;;;;;2.28;2.08;;;20.70;99.90;;;;;;5032313;28;20209;-59
2023/08/17 00:50:37;;;;;;;5.10;2.17;;;20.60;99.90;;;;;;5032297;28;20564;-60
2023/08/17 00:53:04;;;;;;;3.70;2.33;;;20.60;99.90;;;;;;5032047;28;20222;-61
2023/08/17 00:55:31;;;;;;;5.78;2.28;;;20.50;99.90;;;;;;5032323;28;20211;-60
2023/08/17 00:57:58;;;;;;;6.88;2.33;;;20.50;99.90;;;;;;5032006;28;20214;-61
2023/08/17 01:00:26;;;;;;;5.53;2.28;;;20.50;99.90;;;;;;5032312;28;20206;-60
2023/08/17 01:02:54;;;;;;;4.50;2.30;;;20.50;99.90;;;;;;5032122;28;20221;-61
2023/08/17 01:05:21;;;;;;;6.88;2.60;;;20.40;99.90;;;;;;5032062;28;20207;-61
2023/08/17 01:07:50;;;;;;;6.57;2.78;;;20.40;99.90;;;;;;5031985;28;20302;-60
2023/08/17 01:10:17;;;;;;;6.55;2.80;;;20.40;99.90;;;;;;5031840;28;20230;-60
2023/08/17 01:12:50;;;;;;;3.17;2.80;;;20.40;99.90;;;;;;5031904;28;20226;-60
2023/08/17 01:15:20;;;;;;;4.88;2.58;;;20.40;99.90;;;;;;5031862;28;20217;-60
2023/08/17 01:17:53;;;;;;;6.40;2.97;;;20.40;99.90;;;;;;5031435;28;20569;-60
2023/08/17 01:20:21;;;;;;;3.45;2.50;;;20.50;99.90;;;;;;5031612;28;20666;-60
2023/08/17 01:22:53;;;;;;;5.90;2.67;;;20.50;99.90;;;;;;5031547;28;20262;-60
2023/08/17 01:25:21;;;;;;;7.15;2.72;;;20.40;99.90;;;;;;5032026;28;20298;-60
2023/08/17 01:27:48;;;;;;;3.67;2.50;;;20.50;99.90;;;;;;5031350;28;20218;-60
2023/08/17 01:30:18;;;;;;;4.72;2.83;;;20.40;99.90;;;;;;5031532;28;20603;-60
2023/08/17 01:32:51;;;;;;;4.03;2.70;;;20.40;99.90;;;;;;5031656;28;20233;-59
2023/08/17 01:35:28;;;;;;;5.43;2.65;;;20.30;99.90;;;;;;5031726;28;20217;-60
2023/08/17 01:37:59;;;;;;;3.67;2.70;;;20.20;99.90;;;;;;5031201;28;20670;-60
2023/08/17 01:40:29;;;;;;;5.47;2.90;;;20.10;99.90;;;;;;5031560;28;20202;-61
2023/08/17 01:42:56;;;;;;;6.93;3.10;;;20.20;99.90;;;;;;5031707;28;20265;-61
2023/08/17 01:45:23;;;;;;;4.22;2.70;;;20.30;99.90;;;;;;5031423;28;20696;-60
2023/08/17 01:47:50;;;;;;;4.97;3.00;;;20.20;99.90;;;;;;5031306;28;20206;-60
2023/08/17 01:50:17;;;;;;;6.05;2.80;;;20.20;99.90;;;;;;5031216;28;20230;-60
2023/08/17 01:52:43;;;;;;;4.95;2.75;;;20.20;99.90;;;;;;5031487;28;20472;-60
2023/08/17 01:55:10;;;;;;;4.45;3.00;;;20.30;99.90;;;;;;5031413;28;20210;-60
2023/08/17 01:57:38;;;;;;;4.40;2.42;;;20.20;99.90;;;;;;5031165;28;20542;-60
2023/08/17 02:00:06;;;;;;;5.43;2.75;;;20.20;99.90;;;;;;5031178;28;20681;-60
2023/08/17 02:02:33;;;;;;;4.65;2.88;;;20.20;99.90;;;;;;5031418;28;20311;-59
2023/08/17 02:04:59;;;;;;;6.10;2.58;;;20.20;99.90;;;;;;5031464;28;20210;-59
2023/08/17 02:07:26;;;;;;;5.30;3.15;;;20.30;99.90;;;;;;5030941;28;20209;-61
2023/08/17 02:09:52;;;;;;;5.00;2.88;;;20.30;99.90;;;;;;5031125;28;20222;-60
2023/08/17 02:12:19;;;;;;;5.68;3.00;;;20.40;99.90;;;;;;5031158;28;20287;-60
2023/08/17 02:14:47;;;;;;;4.65;2.90;;;20.50;99.90;;;;;;5034754;28;20233;-60
2023/08/17 02:17:16;;;;;;;4.57;2.85;;;20.60;99.90;;;;;;5035087;28;20206;-60
2023/08/17 02:19:43;;;;;;;5.57;2.65;;;20.60;99.90;;;;;;5035200;28;20245;-60
2023/08/17 02:22:11;;;;;;;6.80;2.90;;;20.60;99.90;;;;;;5035065;28;20234;-59
2023/08/17 02:24:37;;;;;;;5.05;2.80;;;20.70;99.90;;;;;;5035066;28;20334;-60
2023/08/17 02:27:04;;;;;;;3.50;3.03;;;20.80;99.90;;;;;;5034517;28;20205;-60
2023/08/17 02:29:31;;;;;;;6.90;3.17;;;20.80;99.90;;;;;;5035132;28;20234;-60
2023/08/17 02:31:59;;;;;;;4.80;3.05;;;20.90;99.90;;;;;;5034788;28;20732;-59
2023/08/17 02:34:26;;;;;;;5.38;3.25;;;21.00;99.90;;;;;;5034751;28;20209;-60
2023/08/17 02:36:53;;;;;;;4.97;2.92;;;21.10;99.90;;;;;;5034698;28;20272;-60
2023/08/17 02:39:19;;;;;;;6.43;2.90;;;21.10;99.90;;;;;;5034891;28;20225;-60
2023/08/17 02:41:48;;;;;;;6.85;2.72;;;21.10;99.90;;;;;;5034481;28;20237;-60
2023/08/17 02:44:15;;;;;;;3.90;2.85;;;21.10;99.90;;;;;;5034531;28;20268;-61
2023/08/17 02:46:42;;;;;;;7.50;3.22;;;21.10;99.90;;;;;;5034730;28;20210;-60
2023/08/17 02:49:10;;;;;;;5.38;2.65;;;21.10;99.90;;;;;;5034428;28;20228;-60
2023/08/17 02:51:37;;;;;;;4.60;3.22;;;21.10;99.90;;;;;;5034699;28;20291;-60
2023/08/17 02:54:04;;;;;;;5.75;2.95;;;21.00;99.90;;;;;;5034428;28;20203;-61
2023/08/17 02:56:31;;;;;;;4.43;3.17;;;21.00;99.90;;;;;;5034225;28;20214;-61
2023/08/17 02:58:57;;;;;;;3.95;3.03;;;21.00;99.90;;;;;;5034538;28;20543;-62
2023/08/17 03:01:25;;;;;;;3.90;2.75;;;20.90;99.90;;;;;;5034720;28;20214;-61
2023/08/17 03:03:52;;;;;;;7.35;3.13;;;20.90;99.90;;;;;;5034563;28;20213;-61
2023/08/17 03:06:20;;;;;;;5.25;3.20;;;20.90;99.90;;;;;;5034364;28;20260;-61
2023/08/17 03:08:47;;;;;;;4.38;3.33;;;20.90;99.90;;;;;;5034277;28;20607;-59
2023/08/17 03:11:14;;;;;;;3.83;2.88;;;20.90;99.90;;;;;;5034453;28;20226;-60
2023/08/17 03:13:40;;;;;;;4.22;3.10;;;21.00;99.90;;;;;;5034285;28;20221;-60
2023/08/17 03:16:07;;;;;;;5.53;3.25;;;21.10;99.90;;;;;;5034115;28;20662;-60
2023/08/17 03:18:34;;;;;;;3.88;2.50;;;21.10;99.90;;;;;;5034369;28;20804;-60
2023/08/17 03:21:00;;;;;;;3.25;2.50;;;21.10;99.90;;;;;;5033969;28;20561;-60
2023/08/17 03:23:28;;;;;;;3.72;2.53;;;21.10;99.90;;;;;;5033777;28;20604;-60
2023/08/17 03:25:55;;;;;;;6.75;3.05;;;21.10;99.90;;;;;;5032596;28;20209;-60
2023/08/17 03:28:21;;;;;;;4.60;2.95;;;21.10;99.90;;;;;;5033938;28;20202;-60
2023/08/17 03:30:47;;;;;;;5.00;2.67;;;21.10;99.90;;;;;;5033900;28;20237;-60
2023/08/17 03:33:14;;;;;;;4.70;2.60;;;21.00;99.90;;;;;;5033615;28;20600;-61
2023/08/17 03:35:41;;;;;;;4.60;2.80;;;21.00;99.90;;;;;;5033424;28;20206;-60
2023/08/17 03:38:08;;;;;;;4.30;2.67;;;21.00;99.90;;;;;;5033324;28;20582;-60
2023/08/17 03:40:36;;;;;;;4.15;2.90;;;20.90;99.90;;;;;;5033831;28;20202;-60
2023/08/17 03:43:02;;;;;;;3.85;2.92;;;20.80;99.90;;;;;;5033406;28;20234;-60
2023/08/17 03:45:30;;;;;;;5.07;3.25;;;20.80;99.90;;;;;;5033647;28;20210;-60
2023/08/17 03:47:57;;;;;;;6.40;3.63;;;20.90;99.90;;;;;;5033669;28;20670;-60
2023/08/17 03:50:23;;;;;;;7.53;3.30;;;20.90;99.90;;;;;;5033373;28;20316;-59
2023/08/17 03:52:50;;;;;;;5.93;3.35;;;20.90;99.90;;;;;;5033290;28;20237;-60
2023/08/17 03:55:17;;;;;;;4.25;3.53;;;20.90;99.90;;;;;;5033440;28;20229;-61
2023/08/17 03:57:45;;;;;;;3.78;3.42;;;20.90;99.90;;;;;;5033135;28;20214;-60
2023/08/17 04:00:12;;;;;;;6.43;3.58;;;21.00;99.90;;;;;;5033240;28;20202;-60
2023/08/17 04:02:39;;;;;;;6.32;3.58;;;21.00;99.90;;;;;;5033224;28;20725;-61
2023/08/17 04:05:06;;;;;;;6.10;3.53;;;21.00;99.90;;;;;;5032965;28;20210;-60
2023/08/17 04:07:33;;;;;;;3.53;3.22;;;21.00;99.90;;;;;;5032767;28;20206;-61
2023/08/17 04:10:00;;;;;;;7.13;3.80;;;21.00;99.90;;;;;;5033403;28;20221;-60
2023/08/17 04:12:27;;;;;;;8.30;3.60;;;21.00;99.90;;;;;;5032934;28;20698;-60
2023/08/17 04:14:55;;;;;;;8.07;3.83;;;21.00;99.90;;;;;;5033061;28;20210;-61
2023/08/17 04:17:21;;;;;;;8.70;3.65;;;21.00;99.90;;;;;;5032643;28;20746;-62
2023/08/17 04:19:48;;;;;;;6.35;3.95;;;21.00;99.90;;;;;;5032850;28;20233;-59
2023/08/17 04:22:15;;;;;;;5.40;3.13;;;21.00;99.90;;;;;;5032945;28;20280;-60
2023/08/17 04:24:41;;;;;;;7.18;3.60;;;21.00;99.90;;;;;;5033027;28;20221;-59
2023/08/17 04:27:08;;;;;;;5.63;3.92;;;21.00;99.90;;;;;;5033016;28;20210;-60
2023/08/17 04:29:35;;;;;;;6.78;3.78;;;20.90;99.90;;;;;;5032851;28;20213;-59
2023/08/17 04:32:03;;;;;;;11.45;4.38;;;21.00;99.90;;;;;;5032407;28;20234;-61
2023/08/17 04:34:29;;;;;;;10.77;4.85;;;21.00;99.90;;;;;;5032890;28;20232;-61
2023/08/17 04:36:56;;;;;;;8.63;5.60;;;21.10;99.90;;;;;;5031944;28;20207;-61
2023/08/17 04:39:23;;;;;;;8.05;4.63;;;21.10;99.90;;;;;;5032549;28;20206;-60
2023/08/17 04:41:50;;;;;;;11.27;5.30;;;21.10;99.90;;;;;;5032459;28;20238;-60
2023/08/17 04:44:16;;;;;;;10.18;5.93;;;21.10;99.90;;;;;;5032428;28;20210;-61
2023/08/17 04:46:43;;;;;;;10.05;5.70;;;21.10;99.90;;;;;;5032340;28;20202;-60
2023/08/17 04:49:11;;;;;;;11.52;6.28;;;21.10;99.90;;;;;;5032193;28;20210;-60
2023/08/17 04:51:38;;;;;;;11.63;6.78;;;21.10;99.90;;;;;;5032181;28;20238;-60
2023/08/17 04:54:05;;;;;;;13.10;6.45;;;21.00;99.90;;;;;;5032337;28;20211;-60
2023/08/17 04:56:31;;;;;;;11.93;5.63;;;21.10;99.90;;;;;;5031901;28;20708;-61
2023/08/17 04:58:58;;;;;;;11.20;5.93;;;21.10;99.90;;;;;;5032186;28;20619;-60
2023/08/17 05:01:25;;;;;;;12.90;5.88;;;21.10;99.90;;;;;;5031770;28;20206;-60
2023/08/17 05:03:52;;;;;;;10.65;6.35;;;21.20;99.90;;;;;;5032367;28;20206;-60
2023/08/17 05:06:20;;;;;;;12.13;6.88;;;21.20;99.90;;;;;;5031897;28;20257;-60
2023/08/17 05:08:47;;;;;;;10.55;6.97;;;21.30;99.90;;;;;;5031769;28;20208;-60
2023/08/17 05:11:13;;;;;;;14.80;7.78;;;21.40;99.90;;;;;;5031853;28;20284;-60
2023/08/17 05:13:40;;;;;;;13.98;7.50;;;21.30;99.90;;;;;;5031861;28;20210;-60
2023/08/17 05:16:07;;;;;;;12.35;7.38;;;21.30;99.90;;;;;;5031546;28;20715;-59
2023/08/17 05:18:34;;;;;;;15.85;8.55;;;21.30;99.90;;;;;;5031969;28;20210;-59
2023/08/17 05:21:00;;;;;;;12.60;8.05;;;21.40;99.90;;;;;;5032135;28;20206;-59
2023/08/17 05:23:28;;;;;;;14.07;8.73;;;21.50;99.90;;;;;;5031924;28;20252;-61
2023/08/17 05:25:55;;;;;;;17.25;9.57;;;21.60;99.90;;;;;;5031416;28;20222;-60
2023/08/17 05:28:22;;;;;;;10.90;8.18;;;21.70;99.90;;;;;;5031689;28;20592;-60
2023/08/17 05:30:50;;;;;;;12.52;8.68;;;21.80;99.90;;;;;;5031737;28;20280;-59
2023/08/17 05:33:17;;;;;;;15.43;9.02;;;21.90;99.90;;;;;;5031783;28;20234;-60
2023/08/17 05:35:44;;;;;;;11.50;8.98;;;22.10;99.90;;;;;;5031707;28;20206;-60
2023/08/17 05:38:10;;;;;;;12.40;9.35;;;22.20;99.90;;;;;;5031698;28;20213;-60
2023/08/17 05:40:38;;;;;;;12.50;9.63;;;22.30;99.90;;;;;;5031689;28;20233;-60
2023/08/17 05:43:05;;;;;;;15.13;10.27;;;22.30;99.90;;;;;;5031566;28;20237;-60
2023/08/17 05:45:32;;;;;;;14.40;9.82;;;22.40;99.90;;;;;;5031581;28;20210;-60
2023/08/17 05:47:58;;;;;;;15.75;9.88;;;22.50;99.90;;;;;;5030852;28;20210;-59
2023/08/17 05:50:25;;;;;;;12.75;10.30;;;22.50;99.90;;;;;;5031417;28;20217;-59
2023/08/17 05:52:52;;;;;;;15.88;11.00;;;22.60;99.90;;;;;;5031663;28;20367;-60
2023/08/17 05:55:19;;;;;;;18.25;11.63;;;22.60;99.90;;;;;;5031356;28;20213;-59
2023/08/17 05:57:47;;;;;;;14.82;11.27;;;22.70;99.90;;;;;;5031485;28;20492;-60
2023/08/17 06:00:15;;;;;;;16.50;11.57;;;22.70;99.90;;;;;;5031296;28;20202;-60
2023/08/17 06:02:42;;;;;;;16.60;11.82;;;22.80;99.90;;;;;;5031456;28;20226;-59
2023/08/17 06:05:09;;;;;;;14.25;11.82;;;22.80;99.90;;;;;;5031208;28;20209;-60
2023/08/17 06:07:36;;;;;;;16.23;12.25;;;22.90;99.90;;;;;;5030800;28;20240;-60
2023/08/17 06:10:05;;;;;;;15.57;11.73;;;23.10;99.90;;;;;;5030947;28;20214;-60
2023/08/17 06:12:32;;;;;;;16.20;11.70;;;23.20;99.90;;;;;;5031562;28;20318;-59
2023/08/17 06:15:02;;;;;;;17.48;13.15;;;23.30;99.90;;;;;;5031159;28;20271;-60
2023/08/17 06:17:29;;;;;;;18.38;13.43;;;23.30;99.90;;;;;;5030902;28;20225;-60
2023/08/17 06:19:55;;;;;;;18.52;13.98;;;23.40;99.90;;;;;;5031406;28;20202;-60
2023/08/17 06:22:22;;;;;;;21.58;15.60;;;23.50;99.90;;;;;;5031070;28;20249;-59
2023/08/17 06:24:49;;;;;;;21.35;15.82;;;23.60;99.90;;;;;;5030857;28;20293;-60
2023/08/17 06:27:16;;;;;;;20.27;15.65;;;23.60;99.90;;;;;;5031275;28;20225;-61
2023/08/17 06:29:43;;;;;;;22.50;15.27;;;23.60;99.90;;;;;;5031100;28;20210;-60
2023/08/17 06:32:11;;;;;;;23.08;15.13;;;23.70;99.90;;;;;;5031050;28;20226;-60
2023/08/17 06:34:38;;;;;;;23.55;16.35;;;23.80;99.90;;;;;;5031156;28;20624;-60
2023/08/17 06:37:05;;;;;;;25.80;16.33;;;23.80;99.90;;;;;;5030905;28;20206;-61
2023/08/17 06:39:32;;;;;;;26.63;18.17;;;23.90;99.90;;;;;;5031076;28;20210;-61
2023/08/17 06:41:59;;;;;;;24.40;17.05;;;23.90;99.90;;;;;;5030844;28;20276;-60
2023/08/17 06:44:25;;;;;;;28.38;17.63;;;24.00;99.90;;;;;;5030850;28;20210;-61
2023/08/17 06:46:52;;;;;;;28.88;18.90;;;24.20;99.90;;;;;;5030636;28;20682;-59
2023/08/17 06:49:20;;;;;;;31.58;20.73;;;24.40;99.90;;;;;;5031354;28;20214;-60
2023/08/17 06:51:47;;;;;;;27.80;19.13;;;24.70;99.90;;;;;;5030730;28;20238;-60
2023/08/17 06:54:14;;;;;;;25.20;17.02;;;25.20;99.90;;;;;;5031015;28;20301;-60
2023/08/17 06:56:41;;;;;;;24.00;16.08;;;25.80;99.90;;;;;;5030666;28;20314;-60
2023/08/17 06:59:07;;;;;;;24.05;15.75;;;26.30;99.90;;;;;;5031655;28;20209;-60
2023/08/17 07:01:34;;;;;;;20.42;13.45;;;26.70;99.90;;;;;;5034152;28;20721;-60
2023/08/17 07:04:01;;;;;;;23.92;15.23;;;27.00;99.90;;;;;;5034460;28;20233;-60
2023/08/17 07:06:29;;;;;;;18.45;13.35;;;27.30;99.90;;;;;;5033806;28;20210;-60
2023/08/17 07:08:56;;;;;;;21.30;13.38;;;27.90;99.90;;;;;;5034166;28;20721;-61
2023/08/17 07:11:23;;;;;;;18.27;12.90;;;28.60;99.90;;;;;;5034237;28;20688;-60
2023/08/17 07:13:50;;;;;;;15.48;11.85;;;29.00;99.90;;;;;;5034204;28;20222;-62
2023/08/17 07:16:17;;;;;;;16.73;12.77;;;29.30;99.90;;;;;;5033728;28;20674;-61
2023/08/17 07:18:44;;;;;;;15.40;12.30;;;29.60;99.90;;;;;;5034106;28;20218;-61
2023/08/17 07:21:11;;;;;;;14.45;9.52;;;29.60;99.90;;;;;;5034138;28;20210;-60
2023/08/17 07:23:39;;;;;;;19.30;11.07;;;29.10;99.90;;;;;;5034068;28;20218;-60
2023/08/17 07:26:05;;;;;;;14.45;11.50;;;28.30;99.90;;;;;;5033467;28;20218;-60
2023/08/17 07:28:32;;;;;;;15.60;11.25;;;27.70;99.90;;;;;;5034000;28;20280;-60
2023/08/17 07:30:59;;;;;;;16.52;11.43;;;27.60;99.90;;;;;;5033825;28;20226;-60
2023/08/17 07:33:25;;;;;;;11.93;10.18;;;27.70;99.90;;;;;;5033592;28;20229;-60
2023/08/17 07:35:54;;;;;;;14.25;11.05;;;27.90;99.90;;;;;;5033662;28;20301;-60
2023/08/17 07:38:20;;;;;;;15.02;10.60;;;28.20;99.90;;;;;;5033865;28;20206;-61
2023/08/17 07:40:48;;;;;;;12.52;9.15;;;28.60;99.90;;;;;;5034047;28;20268;-60
2023/08/17 07:43:15;;;;;;;13.07;9.45;;;29.00;99.90;;;;;;5033933;28;20241;-60
2023/08/17 07:45:42;;;;;;;11.52;8.63;;;29.30;99.90;;;;;;5033408;28;20280;-60
2023/08/17 07:48:09;;;;;;;11.35;8.50;;;29.80;99.90;;;;;;5033346;28;20268;-60
2023/08/17 07:50:36;;;;;;;11.00;8.38;;;30.90;99.90;;;;;;5033986;28;20222;-61
2023/08/17 07:53:02;;;;;;;12.05;8.75;;;32.10;99.90;;;;;;5033631;28;20226;-61
2023/08/17 07:55:29;;;;;;;12.00;8.88;;;32.20;99.90;;;;;;5033161;28;20252;-62
2023/08/17 07:57:57;;;;;;;9.52;6.75;;;31.90;99.90;;;;;;5033104;28;20321;-61
2023/08/17 08:00:24;;;;;;;11.57;8.27;;;31.90;99.90;;;;;;5033714;28;20213;-63
2023/08/17 08:02:50;;;;;;;8.20;7.28;;;31.80;99.90;;;;;;5033643;28;20230;-62
2023/08/17 08:05:17;;;;;;;9.10;7.50;;;32.10;99.90;;;;;;5033580;28;20210;-62
2023/08/17 08:07:44;;;;;;;8.07;6.60;;;32.70;99.90;;;;;;5033366;28;20670;-62
2023/08/17 08:10:10;;;;;;;10.55;7.30;;;32.90;99.90;;;;;;5033445;28;20215;-62
2023/08/17 08:12:37;;;;;;;8.25;6.97;;;32.70;99.90;;;;;;5032885;28;20237;-62
2023/08/17 08:15:06;;;;;;;10.85;7.75;;;32.60;99.90;;;;;;5033070;28;20236;-61
2023/08/17 08:17:33;;;;;;;10.60;8.23;;;32.40;99.90;;;;;;5033256;28;20217;-62
2023/08/17 08:20:00;;;;;;;10.85;7.90;;;32.00;99.90;;;;;;5028500;28;20216;-65
2023/08/17 08:22:26;;;;;;;8.23;6.43;;;32.10;99.90;;;;;;5032357;28;20226;-64
2023/08/17 08:24:53;;;;;;;10.07;7.28;;;31.90;99.90;;;;;;5031840;28;20217;-66
2023/08/17 08:27:20;;;;;;;12.40;6.88;;;31.70;99.90;;;;;;5031671;28;20214;-66
2023/08/17 08:29:46;;;;;;;10.23;7.25;;;31.50;99.90;;;;;;5031805;28;20202;-65
2023/08/17 08:32:15;;;;;;;9.07;7.38;;;31.40;99.90;;;;;;5032205;28;20234;-65
2023/08/17 08:34:41;;;;;;;8.30;7.13;;;31.50;99.90;;;;;;5032425;28;20210;-63
2023/08/17 08:37:08;;;;;;;7.97;7.18;;;31.30;99.90;;;;;;5032174;28;20218;-63
2023/08/17 08:39:49;;;;;;;10.65;7.68;;;30.70;99.90;;;;;;5032003;28;20206;-65
2023/08/17 08:42:16;;;;;;;10.50;8.25;;;30.00;99.90;;;;;;5031967;28;20241;-64
2023/08/17 08:44:43;;;;;;;9.75;7.75;;;29.60;99.90;;;;;;5032792;28;20264;-66
2023/08/17 08:47:11;;;;;;;9.57;7.35;;;29.00;99.90;;;;;;5031754;28;20674;-64
2023/08/17 08:49:41;;;;;;;12.20;8.25;;;28.60;99.90;;;;;;5031819;28;20205;-63
2023/08/17 08:52:09;;;;;;;13.82;7.93;;;28.50;99.90;;;;;;5031443;28;20238;-63
2023/08/17 08:54:38;;;;;;;11.30;7.75;;;28.50;99.90;;;;;;5031616;28;20241;-64
2023/08/17 08:57:13;;;;;;;9.93;7.30;;;28.40;99.90;;;;;;5031313;28;20214;-64
2023/08/17 08:59:44;;;;;;;10.13;7.50;;;28.30;99.90;;;;;;5014317;28;20518;-65
2023/08/17 09:02:14;;;;;;;9.60;7.45;;;28.20;99.90;;;;;;5021170;28;20330;-63
2023/08/17 09:04:44;;;;;;;8.05;6.45;;;28.20;99.90;;;;;;5031001;28;20241;-62
2023/08/17 09:07:12;;;;;;;7.97;6.57;;;28.30;99.90;;;;;;5031277;28;20238;-65
2023/08/17 09:09:39;;;;;;;8.65;6.70;;;28.30;99.90;;;;;;5031339;28;20633;-66
2023/08/17 09:12:09;;;;;;;8.65;7.45;;;28.20;99.90;;;;;;5031664;28;20565;-65
2023/08/17 09:14:37;;;;;;;10.52;7.13;;;28.10;99.90;;;;;;5026663;28;20297;-65
2023/08/17 09:17:04;;;;;;;9.38;7.53;;;27.90;99.90;;;;;;5012154;28;20265;-68
2023/08/17 09:19:32;;;;;;;11.43;8.75;;;27.70;99.90;;;;;;5012029;28;20202;-67
2023/08/17 09:22:01;;;;;;;13.02;9.75;;;27.70;99.90;;;;;;5011876;28;20601;-67
2023/08/17 09:24:35;;;;;;;11.98;9.70;;;27.40;99.90;;;;;;5011822;28;20214;-67
2023/08/17 09:27:02;;;;;;;14.52;10.70;;;27.70;99.90;;;;;;5011808;28;20630;-67
2023/08/17 09:29:31;;;;;;;12.35;8.98;;;27.70;99.90;;;;;;5012169;28;20738;-68
2023/08/17 09:31:58;;;;;;;13.25;9.60;;;27.70;99.90;;;;;;5012014;28;20237;-67
2023/08/17 09:34:25;;;;;;;12.13;10.25;;;27.70;99.90;;;;;;5011883;28;20237;-67
2023/08/17 09:36:52;;;;;;;13.85;9.52;;;27.70;99.90;;;;;;5011693;28;20471;-68
2023/08/17 09:39:20;;;;;;;11.15;8.85;;;27.80;99.90;;;;;;5012172;28;20210;-67
2023/08/17 09:41:46;;;;;;;12.25;9.20;;;27.90;99.90;;;;;;5011681;28;20238;-67
2023/08/17 09:44:13;;;;;;;10.60;9.32;;;27.90;99.90;;;;;;5011831;28;20202;-66
2023/08/17 09:46:43;;;;;;;13.98;11.13;;;28.00;99.90;;;;;;5011531;28;20207;-65
2023/08/17 09:49:10;;;;;;;10.77;9.43;;;27.90;99.90;;;;;;5012732;28;20211;-63
2023/08/17 09:51:37;;;;;;;11.05;9.15;;;27.90;99.90;;;;;;5013882;28;20238;-63
2023/08/17 09:54:04;;;;;;;12.82;9.98;;;27.90;99.90;;;;;;5013622;28;20277;-64
2023/08/17 09:56:32;;;;;;;11.50;10.30;;;28.00;99.90;;;;;;5014190;28;20214;-63
2023/08/17 09:58:59;;;;;;;12.40;10.18;;;28.10;99.90;;;;;;5014538;28;20209;-63
2023/08/17 10:01:28;;;;;;;12.15;10.38;;;28.10;99.90;;;;;;5013792;28;20207;-64
2023/08/17 10:03:57;;;;;;;13.25;10.45;;;28.20;99.90;;;;;;5014768;28;20257;-64
2023/08/17 10:06:27;;;;;;;12.55;10.10;;;28.30;99.90;;;;;;5014201;28;20293;-64
2023/08/17 10:08:56;;;;;;;12.80;10.45;;;28.40;99.90;;;;;;5013789;28;20214;-64
2023/08/17 10:11:23;;;;;;;11.02;9.00;;;28.40;99.90;;;;;;5014775;28;20210;-63
2023/08/17 10:13:57;;;;;;;12.75;8.68;;;28.40;99.90;;;;;;5014601;28;20230;-64
2023/08/17 10:16:29;;;;;;;8.35;7.53;;;28.40;99.90;;;;;;5014736;28;20214;-64
2023/08/17 10:19:01;;;;;;;12.40;8.90;;;28.60;99.90;;;;;;5015175;28;20211;-63
2023/08/17 10:21:30;;;;;;;13.75;8.82;;;28.80;99.90;;;;;;5015738;28;20639;-63
2023/08/17 10:23:57;;;;;;;10.70;9.10;;;28.90;99.90;;;;;;5015458;28;20589;-64
2023/08/17 10:26:25;;;;;;;14.18;8.25;;;29.10;99.90;;;;;;5015221;28;20230;-63
2023/08/17 10:28:54;;;;;;;8.82;7.93;;;29.10;99.90;;;;;;5014628;28;20230;-62
2023/08/17 10:31:21;;;;;;;7.95;7.13;;;29.20;99.90;;;;;;5014863;28;20217;-62
2023/08/17 10:33:49;;;;;;;10.38;8.25;;;29.40;99.90;;;;;;5015890;28;20211;-63
2023/08/17 10:36:16;;;;;;;8.85;7.43;;;29.50;99.90;;;;;;5015658;28;20211;-64
2023/08/17 10:38:43;;;;;;;10.90;7.68;;;29.60;99.90;;;;;;5015159;28;20218;-63
2023/08/17 10:41:11;;;;;;;10.13;7.43;;;29.60;99.90;;;;;;5014919;28;20695;-64
2023/08/17 10:43:57;;;;;;;8.45;6.90;;;29.60;99.90;;;;;;5014837;28;20227;-64
2023/08/17 10:46:34;;;;;;;8.75;6.95;;;29.80;99.90;;;;;;5014647;28;20203;-64
2023/08/17 10:49:06;;;;;;;9.30;6.53;;;30.00;99.90;;;;;;5014844;28;20211;-63
2023/08/17 10:51:33;;;;;;;8.35;6.20;;;30.20;99.90;;;;;;5014960;28;20231;-64
2023/08/17 10:54:03;;;;;;;7.43;5.57;;;30.30;99.90;;;;;;5014909;28;20226;-65
2023/08/17 10:56:31;;;;;;;6.60;5.65;;;30.40;99.90;;;;;;5014442;28;20218;-64
2023/08/17 10:59:02;;;;;;;6.78;5.50;;;30.60;99.90;;;;;;5014715;28;20211;-64
2023/08/17 11:01:36;;;;;;;7.85;5.50;;;30.90;99.90;;;;;;5014534;28;20210;-64
2023/08/17 11:04:13;;;;;;;7.47;4.90;;;31.20;99.90;;;;;;5014368;28;20210;-65
2023/08/17 11:06:40;;;;;;;8.07;5.50;;;31.40;99.90;;;;;;5014154;28;20682;-64
2023/08/17 11:09:08;;;;;;;5.88;5.03;;;31.50;99.90;;;;;;5014439;28;20353;-64
2023/08/17 11:11:35;;;;;;;7.00;5.22;;;31.50;99.90;;;;;;5014182;28;20227;-64
2023/08/17 11:14:04;;;;;;;5.88;5.18;;;31.50;99.90;;;;;;5014416;28;20248;-65
2023/08/17 11:16:30;;;;;;;6.32;4.82;;;31.60;99.90;;;;;;5014046;28;20679;-66
2023/08/17 11:18:59;;;;;;;7.43;5.50;;;31.70;99.90;;;;;;5014436;28;20211;-64
2023/08/17 11:21:26;;;;;;;8.27;4.90;;;31.80;99.90;;;;;;5014233;28;20317;-63
2023/08/17 11:23:56;;;;;;;5.97;4.78;;;31.70;99.90;;;;;;5014110;28;20693;-64
2023/08/17 11:26:23;;;;;;;7.22;5.45;;;31.70;99.90;;;;;;5013857;28;20207;-63
2023/08/17 11:28:50;;;;;;;9.65;5.70;;;31.80;99.90;;;;;;5014015;28;20207;-63
2023/08/17 11:31:18;;;;;;;6.00;4.88;;;31.80;99.90;;;;;;5014617;28;20203;-64
2023/08/17 11:33:46;;;;;;;7.30;4.80;;;31.70;99.90;;;;;;5014236;28;20285;-64
2023/08/17 11:36:13;;;;;;;8.30;5.15;;;31.70;99.90;;;;;;5014001;28;20206;-63
2023/08/17 11:38:42;;;;;;;5.78;4.95;;;31.70;99.90;;;;;;5013795;28;20214;-64
2023/08/17 11:41:09;;;;;;;6.72;5.05;;;31.70;99.90;;;;;;5013768;28;20667;-64
2023/08/17 11:43:37;;;;;;;5.28;4.60;;;31.70;99.90;;;;;;5013480;28;20230;-64
2023/08/17 11:46:05;;;;;;;7.35;5.13;;;31.70;99.90;;;;;;5012556;28;20207;-64
2023/08/17 11:48:34;;;;;;;6.22;4.95;;;31.70;99.90;;;;;;5013529;28;20276;-63
2023/08/17 11:51:00;;;;;;;5.78;5.03;;;31.60;99.90;;;;;;5013642;28;20277;-64
2023/08/17 11:53:34;;;;;;;6.13;5.47;;;31.60;99.90;;;;;;5013699;28;20231;-66
2023/08/17 11:56:00;;;;;;;7.97;5.28;;;31.70;99.90;;;;;;5013070;28;20207;-64
2023/08/17 11:58:37;;;;;;;5.30;4.80;;;31.60;99.90;;;;;;5013862;28;20207;-64
2023/08/17 12:01:12;;;;;;;6.13;5.30;;;31.80;99.90;;;;;;5014092;28;20218;-64
2023/08/17 12:03:41;;;;;;;5.30;4.80;;;31.90;99.90;;;;;;5013601;28;20215;-63
2023/08/17 12:06:08;;;;;;;6.10;5.25;;;32.00;99.90;;;;;;5013227;28;20284;-64
2023/08/17 12:08:35;;;;;;;5.10;4.60;;;32.10;99.90;;;;;;5013594;28;20552;-65
2023/08/17 12:11:03;;;;;;;8.57;5.35;;;32.10;99.90;;;;;;5013399;28;20210;-64
2023/08/17 12:13:36;;;;;;;7.82;6.45;;;32.20;99.90;;;;;;5013503;28;20234;-64
2023/08/17 12:16:04;;;;;;;6.50;5.45;;;32.40;99.90;;;;;;5012924;28;20203;-64
2023/08/17 12:18:33;;;;;;;7.55;5.20;;;32.60;99.90;;;;;;5013321;28;20611;-64
2023/08/17 12:21:02;;;;;;;8.35;5.40;;;32.70;99.90;;;;;;5013166;28;20682;-64
2023/08/17 12:23:28;;;;;;;6.63;5.10;;;32.60;99.90;;;;;;5013092;28;20230;-63
2023/08/17 12:25:55;;;;;;;5.85;5.15;;;32.40;99.90;;;;;;5012855;28;20211;-64
2023/08/17 12:28:23;;;;;;;7.63;5.30;;;32.20;99.90;;;;;;5012995;28;20214;-63
2023/08/17 12:30:59;;;;;;;7.20;5.10;;;32.10;99.90;;;;;;5012930;28;20682;-64
2023/08/17 12:33:25;;;;;;;9.07;5.18;;;31.90;99.90;;;;;;5012748;28;20324;-64
2023/08/17 12:35:52;;;;;;;11.57;10.38;;;31.70;99.90;;;;;;5012800;28;20206;-64
2023/08/17 12:38:20;;;;;;;7.28;4.50;;;31.60;99.90;;;;;;5013036;28;20277;-65
2023/08/17 12:40:47;;;;;;;5.93;5.25;;;31.50;99.90;;;;;;5012954;28;20675;-64
2023/08/17 12:43:14;;;;;;;5.82;5.15;;;31.40;99.90;;;;;;5012639;28;20288;-65